createdAt,value
2018-10-16T00:01:12.127Z,101369.00
2018-10-16T00:03:15.170Z,101367.00
2018-10-16T00:05:18.334Z,101368.00
2018-10-16T00:07:21.375Z,101372.00
2018-10-16T00:09:24.321Z,101375.00
2018-10-16T00:11:27.307Z,101376.00
2018-10-16T00:13:30.278Z,101379.00
2018-10-16T00:15:34.615Z,101383.00
2018-10-16T00:17:37.623Z,101376.00
2018-10-16T00:19:40.636Z,101380.00
2018-10-16T00:21:43.619Z,101373.00
2018-10-16T00:23:46.574Z,101378.00
2018-10-16T00:25:49.658Z,101384.00
2018-10-16T00:27:52.661Z,101377.00
2018-10-16T00:29:55.699Z,101376.00
2018-10-16T00:31:58.742Z,101372.00
2018-10-16T00:34:01.749Z,101370.00
2018-10-16T00:36:06.326Z,101376.00
2018-10-16T00:38:09.375Z,101373.00
2018-10-16T00:40:12.426Z,101372.00
2018-10-16T00:42:15.448Z,101376.00
2018-10-16T00:44:18.735Z,101377.00
2018-10-16T00:46:21.727Z,101370.00
2018-10-16T00:48:24.768Z,101371.00
2018-10-16T00:50:28.078Z,101376.00
2018-10-16T00:52:31.090Z,101384.00
2018-10-16T00:54:34.643Z,101377.00
2018-10-16T00:56:38.322Z,101379.00
2018-10-16T00:58:41.355Z,101379.00
2018-10-16T01:00:44.378Z,101379.00
2018-10-16T01:02:47.422Z,101384.00
2018-10-16T01:04:50.504Z,101394.00
2018-10-16T01:06:53.526Z,101406.00
2018-10-16T01:08:56.555Z,101407.00
2018-10-16T01:10:59.614Z,101400.00
2018-10-16T01:13:04.249Z,101396.00
2018-10-16T01:15:08.862Z,101389.00
2018-10-16T01:17:11.932Z,101384.00
2018-10-16T01:19:14.988Z,101392.00
2018-10-16T01:21:18.134Z,101390.00
2018-10-16T01:23:21.203Z,101390.00
2018-10-16T01:25:24.230Z,101386.00
2018-10-16T01:27:27.266Z,101386.00
2018-10-16T01:29:30.320Z,101381.00
2018-10-16T01:31:34.890Z,101383.00
2018-10-16T01:33:38.734Z,101384.00
2018-10-16T01:35:41.681Z,101394.00
2018-10-16T01:37:44.716Z,101391.00
2018-10-16T01:39:47.717Z,101386.00
2018-10-16T01:41:50.745Z,101391.00
2018-10-16T01:43:53.736Z,101395.00
2018-10-16T01:45:56.739Z,101400.00
2018-10-16T01:47:59.743Z,101398.00
2018-10-16T01:50:04.434Z,101394.00
2018-10-16T01:52:07.434Z,101392.00
2018-10-16T01:54:10.448Z,101387.00
2018-10-16T01:56:13.414Z,101389.00
2018-10-16T01:58:16.393Z,101394.00
2018-10-16T02:00:19.369Z,101404.00
2018-10-16T02:02:22.423Z,101398.00
2018-10-16T02:04:25.426Z,101386.00
2018-10-16T02:06:28.402Z,101385.00
2018-10-16T02:08:31.397Z,101374.00
2018-10-16T02:10:35.743Z,101373.00
2018-10-16T02:12:38.730Z,101373.00
2018-10-16T02:14:41.747Z,101377.00
2018-10-16T02:16:44.797Z,101379.00
2018-10-16T02:18:47.775Z,101381.00
2018-10-16T02:20:50.753Z,101375.00
2018-10-16T02:22:53.731Z,101375.00
2018-10-16T02:24:56.706Z,101378.00
2018-10-16T02:26:59.746Z,101374.00
2018-10-16T02:29:04.483Z,101374.00
2018-10-16T02:31:07.503Z,101388.00
2018-10-16T02:33:10.574Z,101392.00
2018-10-16T02:35:13.658Z,101397.00
2018-10-16T02:37:16.717Z,101398.00
2018-10-16T02:39:19.778Z,101387.00
2018-10-16T02:41:22.799Z,101396.00
2018-10-16T02:43:25.802Z,101396.00
2018-10-16T02:45:28.832Z,101389.00
2018-10-16T02:47:31.819Z,101388.00
2018-10-16T02:49:36.160Z,101395.00
2018-10-16T02:51:39.188Z,101393.00
2018-10-16T02:53:42.215Z,101395.00
2018-10-16T02:55:45.285Z,101393.00
2018-10-16T02:57:48.328Z,101395.00
2018-10-16T02:59:51.323Z,101399.00
2018-10-16T03:01:54.710Z,101406.00
2018-10-16T03:03:57.738Z,101404.00
2018-10-16T03:06:00.790Z,101392.00
2018-10-16T03:08:05.900Z,101399.00
2018-10-16T03:10:08.996Z,101406.00
2018-10-16T03:12:12.023Z,101417.00
2018-10-16T03:14:15.070Z,101422.00
2018-10-16T03:16:18.955Z,101424.00
2018-10-16T03:18:21.962Z,101415.00
2018-10-16T03:20:25.111Z,101408.00
2018-10-16T03:22:28.121Z,101406.00
2018-10-16T03:24:31.182Z,101404.00
2018-10-16T03:26:36.078Z,101401.00
2018-10-16T03:28:39.125Z,101398.00
2018-10-16T03:30:42.221Z,101397.00
2018-10-16T03:32:45.246Z,101396.00
2018-10-16T03:34:48.662Z,101395.00
2018-10-16T03:36:51.751Z,101399.00
2018-10-16T03:38:54.763Z,101401.00
2018-10-16T03:40:57.790Z,101401.00
2018-10-16T03:43:00.911Z,101407.00
2018-10-16T03:45:05.813Z,101410.00
2018-10-16T03:47:08.851Z,101421.00
2018-10-16T03:49:11.902Z,101427.00
2018-10-16T03:51:14.911Z,101420.00
2018-10-16T03:53:17.962Z,101419.00
2018-10-16T03:55:20.959Z,101421.00
2018-10-16T03:57:24.013Z,101424.00
2018-10-16T03:59:27.039Z,101426.00
2018-10-16T04:01:30.061Z,101420.00
2018-10-16T04:03:34.374Z,101422.00
2018-10-16T04:05:37.398Z,101419.00
2018-10-16T04:07:40.443Z,101420.00
2018-10-16T04:09:43.853Z,101417.00
2018-10-16T04:11:46.863Z,101414.00
2018-10-16T04:13:50.194Z,101413.00
2018-10-16T04:15:53.212Z,101417.00
2018-10-16T04:17:56.159Z,101419.00
2018-10-16T04:19:59.201Z,101417.00
2018-10-16T04:22:02.240Z,101419.00
2018-10-16T04:24:06.936Z,101419.00
2018-10-16T04:26:10.603Z,101423.00
2018-10-16T04:28:13.570Z,101427.00
2018-10-16T04:30:16.571Z,101426.00
2018-10-16T04:32:19.526Z,101427.00
2018-10-16T04:34:22.485Z,101423.00
2018-10-16T04:36:25.523Z,101422.00
2018-10-16T04:38:28.501Z,101424.00
2018-10-16T04:40:31.470Z,101422.00
2018-10-16T04:42:35.549Z,101423.00
2018-10-16T04:44:38.478Z,101424.00
2018-10-16T04:46:41.435Z,101421.00
2018-10-16T04:48:44.436Z,101417.00
2018-10-16T04:50:47.386Z,101414.00
2018-10-16T04:52:50.409Z,101420.00
2018-10-16T04:54:53.345Z,101421.00
2018-10-16T04:56:56.359Z,101426.00
2018-10-16T04:58:59.411Z,101421.00
2018-10-16T05:01:02.407Z,101422.00
2018-10-16T05:03:05.972Z,101428.00
2018-10-16T05:05:19.576Z,101431.00
2018-10-16T05:07:22.546Z,101425.00
2018-10-16T05:09:25.632Z,101424.00
2018-10-16T05:11:28.653Z,101430.00
2018-10-16T05:13:31.647Z,101436.00
2018-10-16T05:15:35.922Z,101437.00
2018-10-16T05:17:38.935Z,101432.00
2018-10-16T05:19:41.918Z,101439.00
2018-10-16T05:21:45.291Z,101446.00
2018-10-16T05:23:48.414Z,101446.00
2018-10-16T05:25:51.442Z,101448.00
2018-10-16T05:27:54.883Z,101459.00
2018-10-16T05:29:57.886Z,101462.00
2018-10-16T05:32:00.875Z,101471.00
2018-10-16T05:34:06.411Z,101470.00
2018-10-16T05:36:09.455Z,101476.00
2018-10-16T05:38:18.828Z,101479.00
2018-10-16T05:40:37.365Z,101478.00
2018-10-16T05:42:40.514Z,101485.00
2018-10-16T05:44:43.514Z,101481.00
2018-10-16T05:46:46.588Z,101486.00
2018-10-16T05:48:49.625Z,101492.00
2018-10-16T05:50:52.611Z,101486.00
2018-10-16T05:52:55.653Z,101483.00
2018-10-16T05:54:58.798Z,101488.00
2018-10-16T05:57:01.851Z,101490.00
2018-10-16T05:59:06.546Z,101499.00
2018-10-16T06:01:09.543Z,101500.00
2018-10-16T06:03:12.596Z,101500.00
2018-10-16T06:05:15.605Z,101501.00
2018-10-16T06:07:18.939Z,101507.00
2018-10-16T06:09:21.922Z,101509.00
2018-10-16T06:11:24.915Z,101505.00
2018-10-16T06:13:27.948Z,101502.00
2018-10-16T06:15:30.984Z,101511.00
2018-10-16T06:17:35.336Z,101513.00
2018-10-16T06:19:38.331Z,101517.00
2018-10-16T06:21:41.355Z,101518.00
2018-10-16T06:23:44.379Z,101523.00
2018-10-16T06:25:47.359Z,101528.00
2018-10-16T06:27:50.461Z,101521.00
2018-10-16T06:29:53.529Z,101520.00
2018-10-16T06:31:56.514Z,101521.00
2018-10-16T06:33:59.538Z,101516.00
2018-10-16T06:36:03.900Z,101511.00
2018-10-16T06:38:06.874Z,101506.00
2018-10-16T06:40:10.358Z,101516.00
2018-10-16T06:42:13.632Z,101519.00
2018-10-16T06:44:16.602Z,101519.00
2018-10-16T06:46:19.616Z,101515.00
2018-10-16T06:48:22.751Z,101514.00
2018-10-16T06:50:25.609Z,101513.00
2018-10-16T06:52:28.574Z,101521.00
2018-10-16T06:54:31.607Z,101525.00
2018-10-16T06:56:35.841Z,101526.00
2018-10-16T06:58:38.819Z,101529.00
2018-10-16T07:00:41.787Z,101531.00
2018-10-16T07:02:44.754Z,101533.00
2018-10-16T07:04:47.779Z,101529.00
2018-10-16T07:06:50.873Z,101539.00
2018-10-16T07:08:53.842Z,101533.00
2018-10-16T07:10:56.894Z,101537.00
2018-10-16T07:13:00.159Z,101532.00
2018-10-16T07:15:04.289Z,101526.00
2018-10-16T07:17:07.257Z,101533.00
2018-10-16T07:19:10.398Z,101529.00
2018-10-16T07:21:13.503Z,101534.00
2018-10-16T07:23:16.573Z,101522.00
2018-10-16T07:25:19.524Z,101520.00
2018-10-16T07:27:22.607Z,101521.00
2018-10-16T07:29:25.636Z,101523.00
2018-10-16T07:31:28.728Z,101523.00
2018-10-16T07:33:31.786Z,101520.00
2018-10-16T07:35:36.123Z,101518.00
2018-10-16T07:37:39.868Z,101528.00
2018-10-16T07:39:42.884Z,101529.00
2018-10-16T07:41:46.196Z,101526.00
2018-10-16T07:43:49.217Z,101521.00
2018-10-16T07:45:52.240Z,101521.00
2018-10-16T07:47:55.661Z,101518.00
2018-10-16T07:49:58.737Z,101521.00
2018-10-16T07:52:01.829Z,101520.00
2018-10-16T07:54:05.330Z,101517.00
2018-10-16T07:56:08.739Z,101515.00
2018-10-16T07:58:11.749Z,101509.00
2018-10-16T08:00:14.760Z,101511.00
2018-10-16T08:02:17.799Z,101505.00
2018-10-16T08:04:20.849Z,101513.00
2018-10-16T08:06:23.882Z,101516.00
2018-10-16T08:08:26.903Z,101512.00
2018-10-16T08:10:29.921Z,101515.00
2018-10-16T08:12:34.086Z,101515.00
2018-10-16T08:14:37.902Z,101507.00
2018-10-16T08:16:40.917Z,101501.00
2018-10-16T08:18:43.882Z,101499.00
2018-10-16T08:20:46.863Z,101497.00
2018-10-16T08:22:49.900Z,101496.00
2018-10-16T08:24:52.962Z,101497.00
2018-10-16T08:26:56.345Z,101497.00
2018-10-16T08:28:59.235Z,101494.00
2018-10-16T08:31:02.406Z,101497.00
2018-10-16T08:33:06.880Z,101502.00
2018-10-16T08:35:09.863Z,101502.00
2018-10-16T08:37:21.940Z,101508.00
2018-10-16T08:39:31.863Z,101511.00
2018-10-16T08:44:02.095Z,101516.00
2018-10-16T08:46:23.783Z,101524.00
2018-10-16T08:48:44.698Z,101527.00
2018-10-16T08:51:06.102Z,101529.00
2018-10-16T08:53:09.135Z,101518.00
2018-10-16T08:55:12.151Z,101522.00
2018-10-16T08:57:15.186Z,101526.00
2018-10-16T08:59:18.286Z,101537.00
2018-10-16T09:01:21.325Z,101534.00
2018-10-16T09:03:24.350Z,101529.00
2018-10-16T09:05:27.675Z,101527.00
2018-10-16T09:07:30.666Z,101525.00
2018-10-16T09:09:34.875Z,101528.00
2018-10-16T09:11:37.898Z,101524.00
2018-10-16T09:13:40.955Z,101517.00
2018-10-16T09:15:43.964Z,101518.00
2018-10-16T09:17:46.952Z,101517.00
2018-10-16T09:19:49.918Z,101521.00
2018-10-16T09:21:52.903Z,101522.00
2018-10-16T09:23:55.878Z,101528.00
2018-10-16T09:25:58.991Z,101531.00
2018-10-16T09:28:02.007Z,101531.00
2018-10-16T09:30:07.512Z,101532.00
2018-10-16T09:32:10.497Z,101536.00
2018-10-16T09:34:13.493Z,101533.00
2018-10-16T09:36:16.511Z,101528.00
2018-10-16T09:38:19.588Z,101531.00
2018-10-16T09:40:22.653Z,101527.00
2018-10-16T09:42:25.789Z,101531.00
2018-10-16T09:44:28.869Z,101531.00
2018-10-16T09:46:31.897Z,101538.00
2018-10-16T09:48:36.172Z,101531.00
2018-10-16T09:50:39.295Z,101527.00
2018-10-16T09:52:42.349Z,101523.00
2018-10-16T09:54:45.416Z,101521.00
2018-10-16T09:56:48.487Z,101523.00
2018-10-16T09:58:51.571Z,101518.00
2018-10-16T10:01:00.425Z,101514.00
2018-10-16T10:03:04.567Z,101513.00
2018-10-16T10:05:07.706Z,101512.00
2018-10-16T10:07:10.833Z,101509.00
2018-10-16T10:09:13.909Z,101510.00
2018-10-16T10:11:16.956Z,101508.00
2018-10-16T10:13:20.009Z,101508.00
2018-10-16T10:15:23.013Z,101507.00
2018-10-16T10:17:26.033Z,101506.00
2018-10-16T10:19:29.069Z,101509.00
2018-10-16T10:21:32.080Z,101503.00
2018-10-16T10:23:36.365Z,101505.00
2018-10-16T10:25:39.348Z,101498.00
2018-10-16T10:27:42.353Z,101500.00
2018-10-16T10:29:45.422Z,101497.00
2018-10-16T10:31:48.431Z,101497.00
2018-10-16T10:33:51.501Z,101499.00
2018-10-16T10:35:54.571Z,101494.00
2018-10-16T10:37:57.619Z,101486.00
2018-10-16T10:40:00.636Z,101481.00
2018-10-16T10:42:04.269Z,101477.00
2018-10-16T10:44:07.919Z,101480.00
2018-10-16T10:46:10.963Z,101480.00
2018-10-16T10:48:14.005Z,101481.00
2018-10-16T10:50:17.067Z,101479.00
2018-10-16T10:52:20.106Z,101484.00
2018-10-16T10:54:23.153Z,101477.00
2018-10-16T10:56:26.180Z,101474.00
2018-10-16T10:58:29.165Z,101472.00
2018-10-16T11:00:32.223Z,101474.00
2018-10-16T11:02:36.810Z,101473.00
2018-10-16T11:04:39.868Z,101466.00
2018-10-16T11:06:42.889Z,101467.00
2018-10-16T11:08:45.945Z,101466.00
2018-10-16T11:10:48.961Z,101466.00
2018-10-16T11:12:52.062Z,101468.00
2018-10-16T11:14:55.420Z,101464.00
2018-10-16T11:16:58.453Z,101463.00
2018-10-16T11:19:01.556Z,101464.00
2018-10-16T11:21:06.355Z,101462.00
2018-10-16T11:23:09.396Z,101463.00
2018-10-16T11:25:12.527Z,101465.00
2018-10-16T11:27:15.613Z,101467.00
2018-10-16T11:29:18.640Z,101468.00
2018-10-16T11:31:21.710Z,101463.00
2018-10-16T11:33:24.741Z,101466.00
2018-10-16T11:35:27.805Z,101464.00
2018-10-16T11:37:30.902Z,101468.00
2018-10-16T11:39:35.023Z,101466.00
2018-10-16T11:41:38.174Z,101473.00
2018-10-16T11:43:41.295Z,101469.00
2018-10-16T11:45:44.429Z,101472.00
2018-10-16T11:47:47.511Z,101478.00
2018-10-16T11:49:50.814Z,101472.00
2018-10-16T11:51:53.853Z,101475.00
2018-10-16T11:53:56.885Z,101472.00
2018-10-16T11:56:00.106Z,101470.00
2018-10-16T11:58:04.789Z,101465.00
2018-10-16T12:00:13.770Z,101461.00
2018-10-16T12:02:16.933Z,101465.00
2018-10-16T12:04:19.929Z,101465.00
2018-10-16T12:06:23.019Z,101458.00
2018-10-16T12:08:26.148Z,101463.00
2018-10-16T12:10:29.248Z,101467.00
2018-10-16T12:12:32.291Z,101467.00
2018-10-16T12:14:35.693Z,101470.00
2018-10-16T12:16:45.257Z,101475.00
2018-10-16T12:18:52.897Z,101469.00
2018-10-16T12:21:04.835Z,101474.00
2018-10-16T12:23:07.920Z,101475.00
2018-10-16T12:25:11.063Z,101465.00
2018-10-16T12:27:14.168Z,101473.00
2018-10-16T12:29:17.225Z,101471.00
2018-10-16T12:31:20.276Z,101464.00
2018-10-16T12:33:23.715Z,101468.00
2018-10-16T12:35:26.741Z,101468.00
2018-10-16T12:37:29.787Z,101463.00
2018-10-16T12:39:34.077Z,101464.00
2018-10-16T12:41:37.121Z,101461.00
2018-10-16T12:43:40.413Z,101460.00
2018-10-16T12:45:43.621Z,101460.00
2018-10-16T12:47:46.654Z,101457.00
2018-10-16T12:49:49.679Z,101456.00
2018-10-16T12:51:52.749Z,101457.00
2018-10-16T12:53:55.817Z,101451.00
2018-10-16T12:55:58.969Z,101452.00
2018-10-16T12:58:02.045Z,101455.00
2018-10-16T13:00:06.567Z,101463.00
2018-10-16T13:02:09.693Z,101464.00
2018-10-16T13:04:12.678Z,101462.00
2018-10-16T13:06:15.709Z,101466.00
2018-10-16T13:08:18.759Z,101467.00
2018-10-16T13:10:21.841Z,101459.00
2018-10-16T13:12:24.950Z,101460.00
2018-10-16T13:14:28.278Z,101461.00
2018-10-16T13:16:31.772Z,101465.00
2018-10-16T13:18:36.110Z,101465.00
2018-10-16T13:20:39.157Z,101467.00
2018-10-16T13:22:43.689Z,101462.00
2018-10-16T13:24:46.713Z,101463.00
2018-10-16T13:26:49.824Z,101462.00
2018-10-16T13:28:53.257Z,101460.00
2018-10-16T13:30:56.286Z,101457.00
2018-10-16T13:32:59.381Z,101457.00
2018-10-16T13:35:02.515Z,101455.00
2018-10-16T13:37:06.073Z,101457.00
2018-10-16T13:39:09.101Z,101458.00
2018-10-16T13:41:12.165Z,101457.00
2018-10-16T13:43:15.250Z,101460.00
2018-10-16T13:45:18.329Z,101457.00
2018-10-16T13:47:21.372Z,101445.00
2018-10-16T13:49:24.524Z,101458.00
2018-10-16T13:51:27.613Z,101453.00
2018-10-16T13:53:30.652Z,101457.00
2018-10-16T13:55:35.353Z,101456.00
2018-10-16T13:57:38.497Z,101456.00
2018-10-16T13:59:41.528Z,101458.00
2018-10-16T14:01:44.557Z,101459.00
2018-10-16T14:03:47.621Z,101460.00
2018-10-16T14:05:50.840Z,101459.00
2018-10-16T14:07:53.904Z,101458.00
2018-10-16T14:09:56.960Z,101455.00
2018-10-16T14:12:00.073Z,101457.00
2018-10-16T14:14:05.234Z,101457.00
2018-10-16T14:16:08.312Z,101452.00
2018-10-16T14:18:11.376Z,101453.00
2018-10-16T14:20:14.481Z,101453.00
2018-10-16T14:22:17.541Z,101459.00
2018-10-16T14:24:20.594Z,101461.00
2018-10-16T14:26:23.655Z,101456.00
2018-10-16T14:28:26.750Z,101457.00
2018-10-16T14:30:29.834Z,101460.00
2018-10-16T14:32:33.980Z,101457.00
2018-10-16T14:34:37.120Z,101454.00
2018-10-16T14:36:40.115Z,101457.00
2018-10-16T14:38:43.244Z,101462.00
2018-10-16T14:40:46.320Z,101457.00
2018-10-16T14:42:49.347Z,101455.00
2018-10-16T14:44:52.408Z,101460.00
2018-10-16T14:46:55.533Z,101463.00
2018-10-16T14:48:58.578Z,101464.00
2018-10-16T14:51:01.605Z,101467.00
2018-10-16T14:53:06.645Z,101468.00
2018-10-16T14:55:09.738Z,101469.00
2018-10-16T14:57:12.813Z,101473.00
2018-10-16T14:59:15.830Z,101478.00
2018-10-16T15:01:18.897Z,101477.00
2018-10-16T15:03:21.971Z,101483.00
2018-10-16T15:05:25.004Z,101477.00
2018-10-16T15:07:28.058Z,101484.00
2018-10-16T15:09:31.134Z,101487.00
2018-10-16T15:11:35.521Z,101486.00
2018-10-16T15:13:38.613Z,101489.00
2018-10-16T15:15:41.646Z,101493.00
2018-10-16T15:17:44.712Z,101495.00
2018-10-16T15:19:48.074Z,101495.00
2018-10-16T15:21:51.128Z,101497.00
2018-10-16T15:23:54.194Z,101488.00
2018-10-16T15:25:57.344Z,101488.00
2018-10-16T15:28:00.376Z,101488.00
2018-10-16T15:30:05.100Z,101492.00
2018-10-16T15:32:08.291Z,101494.00
2018-10-16T15:34:11.347Z,101496.00
2018-10-16T15:36:14.364Z,101497.00
2018-10-16T15:38:17.459Z,101493.00
2018-10-16T15:40:20.503Z,101495.00
2018-10-16T15:42:23.633Z,101496.00
2018-10-16T15:44:26.686Z,101496.00
2018-10-16T15:46:29.733Z,101493.00
2018-10-16T15:48:34.016Z,101497.00
2018-10-16T15:50:37.047Z,101498.00
2018-10-16T15:52:40.205Z,101501.00
2018-10-16T15:54:43.249Z,101501.00
2018-10-16T15:56:46.272Z,101501.00
2018-10-16T15:58:49.705Z,101511.00
2018-10-16T16:00:52.671Z,101511.00
2018-10-16T16:02:55.748Z,101508.00
2018-10-16T16:04:58.813Z,101512.00
2018-10-16T16:07:01.857Z,101513.00
2018-10-16T16:09:06.524Z,101518.00
2018-10-16T16:11:09.575Z,101517.00
2018-10-16T16:13:12.588Z,101525.00
2018-10-16T16:15:15.561Z,101524.00
2018-10-16T16:17:18.602Z,101528.00
2018-10-16T16:19:21.611Z,101533.00
2018-10-16T16:21:24.617Z,101536.00
2018-10-16T16:23:27.668Z,101537.00
2018-10-16T16:25:30.664Z,101542.00
2018-10-16T16:27:35.156Z,101543.00
2018-10-16T16:29:38.231Z,101547.00
2018-10-16T16:31:41.275Z,101549.00
2018-10-16T16:33:44.268Z,101549.00
2018-10-16T16:35:47.248Z,101551.00
2018-10-16T16:37:50.727Z,101555.00
2018-10-16T16:39:53.681Z,101559.00
2018-10-16T16:41:56.691Z,101557.00
2018-10-16T16:43:59.790Z,101563.00
2018-10-16T16:46:04.642Z,101561.00
2018-10-16T16:48:07.717Z,101569.00
2018-10-16T16:50:11.621Z,101574.00
2018-10-16T16:52:14.555Z,101576.00
2018-10-16T16:54:17.616Z,101585.00
2018-10-16T16:56:20.605Z,101577.00
2018-10-16T16:58:23.652Z,101576.00
2018-10-16T17:00:26.629Z,101576.00
2018-10-16T17:02:29.624Z,101576.00
2018-10-16T17:04:34.117Z,101579.00
2018-10-16T17:06:37.082Z,101583.00
2018-10-16T17:08:40.120Z,101580.00
2018-10-16T17:10:43.131Z,101581.00
2018-10-16T17:12:46.152Z,101577.00
2018-10-16T17:14:49.221Z,101581.00
2018-10-16T17:16:52.288Z,101585.00
2018-10-16T17:18:55.401Z,101586.00
2018-10-16T17:20:58.419Z,101589.00
2018-10-16T17:23:01.442Z,101589.00
2018-10-16T17:25:05.276Z,101584.00
2018-10-16T17:27:08.376Z,101585.00
2018-10-16T17:29:11.819Z,101585.00
2018-10-16T17:31:14.793Z,101589.00
2018-10-16T17:33:17.837Z,101594.00
2018-10-16T17:35:20.837Z,101597.00
2018-10-16T17:37:23.881Z,101593.00
2018-10-16T17:39:26.923Z,101600.00
2018-10-16T17:41:30.085Z,101600.00
2018-10-16T17:43:34.530Z,101592.00
2018-10-16T17:45:37.570Z,101595.00
2018-10-16T17:47:40.880Z,101598.00
2018-10-16T17:49:43.841Z,101602.00
2018-10-16T17:51:46.841Z,101599.00
2018-10-16T17:53:49.900Z,101602.00
2018-10-16T17:55:52.940Z,101605.00
2018-10-16T17:57:56.008Z,101606.00
2018-10-16T17:59:58.995Z,101607.00
2018-10-16T18:02:02.037Z,101610.00
2018-10-16T18:04:07.069Z,101608.00
2018-10-16T18:06:10.026Z,101608.00
2018-10-16T18:08:13.341Z,101609.00
2018-10-16T18:10:16.344Z,101603.00
2018-10-16T18:12:19.328Z,101613.00
2018-10-16T18:14:22.333Z,101610.00
2018-10-16T18:16:25.340Z,101612.00
2018-10-16T18:18:28.315Z,101608.00
2018-10-16T18:20:31.371Z,101605.00
2018-10-16T18:22:35.613Z,101609.00
2018-10-16T18:24:38.629Z,101606.00
2018-10-16T18:26:41.660Z,101606.00
2018-10-16T18:28:44.646Z,101610.00
2018-10-16T18:30:47.645Z,101613.00
2018-10-16T18:32:50.706Z,101612.00
2018-10-16T18:34:53.694Z,101614.00
2018-10-16T18:36:56.691Z,101614.00
2018-10-16T18:38:59.775Z,101615.00
2018-10-16T18:41:04.566Z,101614.00
2018-10-16T18:43:07.549Z,101612.00
2018-10-16T18:45:12.190Z,101614.00
2018-10-16T18:47:15.211Z,101615.00
2018-10-16T18:49:18.273Z,101618.00
2018-10-16T18:51:21.632Z,101613.00
2018-10-16T18:53:24.785Z,101612.00
2018-10-16T18:55:27.821Z,101618.00
2018-10-16T18:57:30.911Z,101616.00
2018-10-16T18:59:35.062Z,101614.00
2018-10-16T19:01:38.110Z,101619.00
2018-10-16T19:03:41.160Z,101618.00
2018-10-16T19:05:44.322Z,101619.00
2018-10-16T19:07:47.431Z,101619.00
2018-10-16T19:09:50.461Z,101621.00
2018-10-16T19:11:53.582Z,101618.00
2018-10-16T19:13:56.782Z,101617.00
2018-10-16T19:16:00.043Z,101612.00
2018-10-16T19:18:04.496Z,101613.00
2018-10-16T19:20:09.519Z,101612.00
2018-10-16T19:22:12.551Z,101616.00
2018-10-16T19:24:15.613Z,101620.00
2018-10-16T19:26:18.702Z,101615.00
2018-10-16T19:28:21.804Z,101612.00
2018-10-16T19:30:24.857Z,101618.00
2018-10-16T19:32:27.881Z,101620.00
2018-10-16T19:34:31.277Z,101620.00
2018-10-16T19:36:35.666Z,101619.00
2018-10-16T19:38:38.668Z,101617.00
2018-10-16T19:40:41.972Z,101619.00
2018-10-16T19:42:45.008Z,101618.00
2018-10-16T19:44:48.026Z,101622.00
2018-10-16T19:46:51.380Z,101623.00
2018-10-16T19:48:54.500Z,101632.00
2018-10-16T19:50:57.602Z,101631.00
2018-10-16T19:53:00.953Z,101628.00
2018-10-16T19:55:06.265Z,101627.00
2018-10-16T19:57:09.366Z,101629.00
2018-10-16T19:59:12.452Z,101623.00
2018-10-16T20:01:15.488Z,101626.00
2018-10-16T20:03:18.614Z,101626.00
2018-10-16T20:05:21.681Z,101624.00
2018-10-16T20:07:24.740Z,101626.00
2018-10-16T20:09:27.789Z,101625.00
2018-10-16T20:11:30.984Z,101623.00
2018-10-16T20:13:35.108Z,101621.00
2018-10-16T20:15:38.192Z,101621.00
2018-10-16T20:17:41.166Z,101620.00
2018-10-16T20:19:44.230Z,101617.00
2018-10-16T20:21:47.388Z,101622.00
2018-10-16T20:23:50.451Z,101623.00
2018-10-16T20:25:53.424Z,101628.00
2018-10-16T20:27:56.460Z,101624.00
2018-10-16T20:29:59.489Z,101591.00
2018-10-16T20:32:03.991Z,101619.00
2018-10-16T20:34:06.969Z,101617.00
2018-10-16T20:36:10.016Z,101621.00
2018-10-16T20:38:13.042Z,101620.00
2018-10-16T20:40:16.041Z,101620.00
2018-10-16T20:42:19.126Z,101623.00
2018-10-16T20:44:22.126Z,101622.00
2018-10-16T20:46:25.112Z,101625.00
2018-10-16T20:48:28.170Z,101625.00
2018-10-16T20:50:31.153Z,101624.00
2018-10-16T20:52:35.369Z,101620.00
2018-10-16T20:54:38.406Z,101625.00
2018-10-16T20:56:41.461Z,101624.00
2018-10-16T20:58:44.421Z,101630.00
2018-10-16T21:00:47.812Z,101630.00
2018-10-16T21:02:50.996Z,101626.00
2018-10-16T21:04:54.196Z,101627.00
2018-10-16T21:06:57.161Z,101633.00
2018-10-16T21:09:00.376Z,101628.00
2018-10-16T21:11:04.713Z,101629.00
2018-10-16T21:13:07.773Z,101636.00
2018-10-16T21:15:10.844Z,101629.00
2018-10-16T21:17:13.832Z,101629.00
2018-10-16T21:19:16.825Z,101629.00
2018-10-16T21:21:20.103Z,101630.00
2018-10-16T21:23:23.096Z,101629.00
2018-10-16T21:25:26.076Z,101627.00
2018-10-16T21:27:29.123Z,101631.00
2018-10-16T21:29:32.376Z,101628.00
2018-10-16T21:31:36.399Z,101543.00
2018-10-16T21:33:39.529Z,101631.00
2018-10-16T21:35:42.494Z,101628.00
2018-10-16T21:37:45.498Z,101630.00
2018-10-16T21:39:48.499Z,101634.00
2018-10-16T21:41:51.537Z,101632.00
2018-10-16T21:43:54.972Z,101628.00
2018-10-16T21:45:58.040Z,101630.00
2018-10-16T21:48:01.014Z,101630.00
2018-10-16T21:50:05.930Z,101629.00
2018-10-16T21:52:08.948Z,101629.00
2018-10-16T21:54:11.960Z,101636.00
2018-10-16T21:56:14.983Z,101632.00
2018-10-16T21:58:17.987Z,101634.00
2018-10-16T22:00:26.710Z,101631.00
2018-10-16T22:02:35.371Z,101627.00
2018-10-16T22:04:39.780Z,101626.00
2018-10-16T22:06:43.072Z,101627.00
2018-10-16T22:08:46.068Z,101625.00
2018-10-16T22:10:49.123Z,101626.00
2018-10-16T22:12:52.349Z,101626.00
2018-10-16T22:14:55.376Z,101623.00
2018-10-16T22:16:58.466Z,101625.00
2018-10-16T22:19:01.513Z,101626.00
2018-10-16T22:21:06.100Z,101628.00
2018-10-16T22:23:09.458Z,101624.00
2018-10-16T22:25:12.906Z,101631.00
2018-10-16T22:27:15.872Z,101629.00
2018-10-16T22:29:18.921Z,101628.00
2018-10-16T22:31:21.840Z,101630.00
2018-10-16T22:33:24.824Z,101629.00
2018-10-16T22:35:27.818Z,101628.00
2018-10-16T22:37:30.842Z,101625.00
2018-10-16T22:39:35.092Z,101636.00
2018-10-16T22:41:38.410Z,101630.00
2018-10-16T22:43:41.432Z,101633.00
2018-10-16T22:45:44.397Z,101631.00
2018-10-16T22:47:47.380Z,101633.00
2018-10-16T22:49:50.746Z,101633.00
2018-10-16T22:51:53.739Z,101634.00
2018-10-16T22:53:56.688Z,101638.00
2018-10-16T22:55:59.688Z,101647.00
2018-10-16T22:58:05.051Z,101640.00
2018-10-16T23:00:14.167Z,101646.00
2018-10-16T23:02:17.191Z,101642.00
2018-10-16T23:04:20.183Z,101638.00
2018-10-16T23:06:23.137Z,101644.00
2018-10-16T23:08:26.459Z,101645.00
2018-10-16T23:10:29.443Z,101641.00
2018-10-16T23:12:32.416Z,101644.00
2018-10-16T23:14:36.827Z,101649.00
2018-10-16T23:16:39.838Z,101654.00
2018-10-16T23:18:43.071Z,101651.00
2018-10-16T23:20:46.103Z,101646.00
2018-10-16T23:22:49.108Z,101649.00
2018-10-16T23:24:52.254Z,101643.00
2018-10-16T23:26:55.295Z,101647.00
2018-10-16T23:28:58.378Z,101649.00
2018-10-16T23:31:01.670Z,101646.00